San Fernando, California
Current Conditions -  °F | °C
As of 2:51 PM on Friday 31 Oct 2014 (Local Time) from KVNY Reporting Station
Overcast Overcast  
Wind Chill: 67°   Ceiling: 3300
Heat Index: 67°   Visibility: 10mi
Dew Point: 51°   Wind: 6mph
Humidity: 57%   Direction: 160°SSE
Pressure: 29.88"   Gusts: NA
Location:  34.28°N, 118.43°W
Report Text: KVNY 312151Z 16005KT 10SM OVC033 19/11 A2988 RMK AO2 SLP111 T01940106
Loading
Personal Weather Stations






























Interactive Weather Map
Tropical Storm Tracking
New forecast layout! Learn more

10-Day Weather Forecast

Advertisements
Track Severe Weather on mobile